createdAt,value
2018-03-21T00:00:40.169Z,127.35
2018-03-21T00:03:06.795Z,121.97
2018-03-21T00:05:33.394Z,150.48
2018-03-21T00:07:59.998Z,109.18
2018-03-21T00:10:26.598Z,104.07
2018-03-21T00:12:53.229Z,143.30
2018-03-21T00:15:19.843Z,127.80
2018-03-21T00:17:46.452Z,148.07
2018-03-21T00:20:13.058Z,131.05
2018-03-21T00:22:40.041Z,122.70
2018-03-21T00:25:06.642Z,116.18
2018-03-21T00:27:33.252Z,127.60
2018-03-21T00:29:59.868Z,110.07
2018-03-21T00:32:26.474Z,123.62
2018-03-21T00:34:53.070Z,83.03
2018-03-21T00:37:19.669Z,104.38
2018-03-21T00:39:46.280Z,95.80
2018-03-21T00:42:12.885Z,123.82
2018-03-21T00:44:39.512Z,96.55
2018-03-21T00:47:06.926Z,117.32
2018-03-21T00:49:33.544Z,121.37
2018-03-21T00:52:00.150Z,129.60
2018-03-21T00:54:26.750Z,96.93
2018-03-21T00:56:53.360Z,106.50
2018-03-21T00:59:19.963Z,95.43
2018-03-21T01:01:46.563Z,114.45
2018-03-21T01:04:13.187Z,115.80
2018-03-21T01:06:39.805Z,128.25
2018-03-21T01:09:06.417Z,109.37
2018-03-21T01:11:33.026Z,101.95
2018-03-21T01:13:59.640Z,101.82
2018-03-21T01:16:26.256Z,124.55
2018-03-21T01:18:52.874Z,161.37
2018-03-21T01:21:19.496Z,151.35
2018-03-21T01:23:46.116Z,201.98
2018-03-21T01:26:12.738Z,157.88
2018-03-21T01:28:39.338Z,138.55
2018-03-21T01:31:05.942Z,119.82
2018-03-21T01:33:32.559Z,128.93
2018-03-21T01:35:59.182Z,155.80
2018-03-21T01:38:25.803Z,168.20
2018-03-21T01:40:52.421Z,156.52
2018-03-21T01:43:19.069Z,162.02
2018-03-21T01:45:45.674Z,106.78
2018-03-21T01:48:12.283Z,94.72
2018-03-21T01:50:38.899Z,146.32
2018-03-21T01:53:12.417Z,157.73
2018-03-21T01:55:39.908Z,110.32
2018-03-21T01:58:06.514Z,145.68
2018-03-21T02:00:33.123Z,129.60
2018-03-21T02:02:59.748Z,114.37
2018-03-21T02:05:26.352Z,118.40
2018-03-21T02:07:52.967Z,176.07
2018-03-21T02:10:19.577Z,160.40
2018-03-21T02:12:46.183Z,137.80
2018-03-21T02:15:12.804Z,207.70
2018-03-21T02:17:39.420Z,154.02
2018-03-21T02:20:06.046Z,132.48
2018-03-21T02:22:33.803Z,133.52
2018-03-21T02:25:00.406Z,134.52
2018-03-21T02:27:27.032Z,155.80
2018-03-21T02:29:53.643Z,157.10
2018-03-21T02:32:20.260Z,181.30
2018-03-21T02:34:46.862Z,115.85
2018-03-21T02:37:13.481Z,125.57
2018-03-21T02:39:40.084Z,129.95
2018-03-21T02:42:06.704Z,153.10
2018-03-21T02:44:33.322Z,135.65
2018-03-21T02:46:59.933Z,150.43
2018-03-21T02:49:26.544Z,141.93
2018-03-21T02:51:53.156Z,119.00
2018-03-21T02:54:19.770Z,108.97
2018-03-21T02:56:46.388Z,95.65
2018-03-21T02:59:13.000Z,140.55
2018-03-21T03:01:39.624Z,136.93
2018-03-21T03:04:06.226Z,152.12
2018-03-21T03:06:32.833Z,169.13
2018-03-21T03:08:59.452Z,156.90
2018-03-21T03:11:26.067Z,122.85
2018-03-21T03:13:52.696Z,215.85
2018-03-21T03:16:19.300Z,186.20
2018-03-21T03:18:45.904Z,207.35
2018-03-21T03:21:12.532Z,162.25
2018-03-21T03:23:39.137Z,163.40
2018-03-21T03:26:05.753Z,226.75
2018-03-21T03:28:32.363Z,157.65
2018-03-21T03:30:58.976Z,184.77
2018-03-21T03:33:25.584Z,175.65
2018-03-21T03:35:52.195Z,203.32
2018-03-21T03:38:18.809Z,188.90
2018-03-21T03:40:45.770Z,170.00
2018-03-21T03:43:12.358Z,166.98
2018-03-21T03:45:38.969Z,133.95
2018-03-21T03:48:05.595Z,151.90
2018-03-21T03:50:32.210Z,160.52
2018-03-21T03:52:59.084Z,225.90
2018-03-21T03:55:25.682Z,182.93
2018-03-21T03:57:52.308Z,178.55
2018-03-21T04:00:18.918Z,173.38
2018-03-21T04:02:45.529Z,188.37
2018-03-21T04:05:12.133Z,181.20
2018-03-21T04:07:38.783Z,178.38
2018-03-21T04:10:06.224Z,153.02
2018-03-21T04:12:32.829Z,168.87
2018-03-21T04:14:59.438Z,181.75
2018-03-21T04:17:26.042Z,157.50
2018-03-21T04:19:52.661Z,189.98
2018-03-21T04:22:19.265Z,131.30
2018-03-21T04:24:45.870Z,133.40
2018-03-21T04:27:12.474Z,201.57
2018-03-21T04:29:39.081Z,186.62
2018-03-21T04:32:05.690Z,219.13
2018-03-21T04:34:32.310Z,199.50
2018-03-21T04:36:58.909Z,220.98
2018-03-21T04:39:25.530Z,192.13
2018-03-21T04:41:52.129Z,193.75
2018-03-21T04:44:18.750Z,199.27
2018-03-21T04:46:45.365Z,197.27
2018-03-21T04:49:11.978Z,217.80
2018-03-21T04:51:38.578Z,211.12
2018-03-21T04:54:05.182Z,167.07
2018-03-21T04:56:31.790Z,153.65
2018-03-21T04:58:58.394Z,234.32
2018-03-21T05:01:25.028Z,155.80
2018-03-21T05:03:51.626Z,187.02
2018-03-21T05:06:18.230Z,194.87
2018-03-21T05:08:44.852Z,178.50
2018-03-21T05:11:11.453Z,225.02
2018-03-21T05:13:38.053Z,217.87
2018-03-21T05:16:04.658Z,191.40
2018-03-21T05:18:31.274Z,203.02
2018-03-21T05:20:57.908Z,183.60
2018-03-21T05:23:24.510Z,173.38
2018-03-21T05:25:51.118Z,213.02
2018-03-21T05:28:17.737Z,188.35
2018-03-21T05:30:44.348Z,213.23
2018-03-21T05:33:10.962Z,182.27
2018-03-21T05:35:37.581Z,190.62
2018-03-21T05:38:04.200Z,228.07
2018-03-21T05:40:30.814Z,228.93
2018-03-21T05:42:57.430Z,161.23
2018-03-21T05:45:24.039Z,193.60
2018-03-21T05:47:50.664Z,176.50
2018-03-21T05:50:17.283Z,209.60
2018-03-21T05:52:43.925Z,184.48
2018-03-21T05:55:11.162Z,203.50
2018-03-21T05:57:38.609Z,174.73
2018-03-21T06:00:05.579Z,192.25
2018-03-21T06:02:34.020Z,220.85
2018-03-21T06:07:32.262Z,136.07
2018-03-21T06:09:58.919Z,157.50
2018-03-21T06:12:25.557Z,147.80
2018-03-21T06:14:52.158Z,188.68
2018-03-21T06:17:18.789Z,133.40
2018-03-21T06:19:48.798Z,154.10
2018-03-21T06:22:16.316Z,125.12
2018-03-21T06:24:44.880Z,124.03
2018-03-21T06:27:11.625Z,101.82
2018-03-21T06:29:38.227Z,101.90
2018-03-21T06:32:04.851Z,81.32
2018-03-21T06:34:31.450Z,64.62
2018-03-21T06:36:58.050Z,32.22
2018-03-21T06:39:24.704Z,30.45
2018-03-21T06:41:51.306Z,39.83
2018-03-21T06:44:17.910Z,29.15
2018-03-21T06:46:44.514Z,37.80
2018-03-21T06:49:11.129Z,25.55
2018-03-21T06:51:37.753Z,21.05
2018-03-21T06:54:04.363Z,16.60
2018-03-21T06:56:30.988Z,16.98
2018-03-21T06:58:57.608Z,8.52
2018-03-21T07:01:24.206Z,9.65
2018-03-21T07:03:50.815Z,7.65
2018-03-21T07:06:17.445Z,6.20
2018-03-21T07:08:44.051Z,6.78
2018-03-21T07:11:11.932Z,6.68
2018-03-21T07:13:44.397Z,4.82
2018-03-21T07:16:17.658Z,3.30
2018-03-21T07:18:44.274Z,6.05
2018-03-21T07:21:10.874Z,5.15
2018-03-21T07:23:37.472Z,4.37
2018-03-21T07:26:04.088Z,6.18
2018-03-21T07:28:30.700Z,4.15
2018-03-21T07:30:57.296Z,3.78
2018-03-21T07:33:23.902Z,5.70
2018-03-21T07:35:50.514Z,3.65
2018-03-21T07:38:17.140Z,4.50
2018-03-21T07:40:43.755Z,5.03
2018-03-21T07:43:10.343Z,4.85
2018-03-21T07:45:37.372Z,3.87
2018-03-21T07:48:03.981Z,4.47
2018-03-21T07:50:30.612Z,3.80
2018-03-21T07:52:57.214Z,4.18
2018-03-21T07:55:23.810Z,4.10
2018-03-21T07:57:50.417Z,4.72
2018-03-21T08:00:17.005Z,3.92
2018-03-21T08:02:43.601Z,5.68
2018-03-21T08:05:10.219Z,3.60
2018-03-21T08:07:36.906Z,4.60
2018-03-21T08:10:03.498Z,4.62
2018-03-21T08:12:30.116Z,3.65
2018-03-21T08:14:56.723Z,3.17
2018-03-21T08:17:23.350Z,3.20
2018-03-21T08:19:50.062Z,3.85
2018-03-21T08:22:16.728Z,3.62
2018-03-21T08:24:43.327Z,4.25
2018-03-21T08:27:09.920Z,4.07
2018-03-21T08:29:36.576Z,3.15
2018-03-21T08:32:03.198Z,3.62
2018-03-21T08:34:29.832Z,4.07
2018-03-21T08:36:56.482Z,3.47
2018-03-21T08:39:23.030Z,3.22
2018-03-21T08:41:49.642Z,5.40
2018-03-21T08:44:16.239Z,3.70
2018-03-21T08:46:42.832Z,2.40
2018-03-21T08:49:09.417Z,4.07
2018-03-21T08:51:36.019Z,1.80
2018-03-21T08:54:02.629Z,3.20
2018-03-21T08:56:29.256Z,2.92
2018-03-21T08:58:55.842Z,1.92
2018-03-21T09:01:22.458Z,2.10
2018-03-21T09:03:49.024Z,2.60
2018-03-21T09:06:15.630Z,3.95
2018-03-21T09:08:42.228Z,2.60
2018-03-21T09:11:08.839Z,2.78
2018-03-21T09:13:35.442Z,3.78
2018-03-21T09:16:02.036Z,4.03
2018-03-21T09:18:28.640Z,2.92
2018-03-21T09:20:55.239Z,4.45
2018-03-21T09:23:21.847Z,3.05
2018-03-21T09:25:48.426Z,2.33
2018-03-21T09:28:15.027Z,4.18
2018-03-21T09:30:41.636Z,2.65
2018-03-21T09:33:08.261Z,4.12
2018-03-21T09:35:34.846Z,3.40
2018-03-21T09:38:01.448Z,2.70
2018-03-21T09:40:28.076Z,3.28
2018-03-21T09:42:54.689Z,3.25
2018-03-21T09:45:21.282Z,3.35
2018-03-21T09:47:47.889Z,2.70
2018-03-21T09:50:14.487Z,3.85
2018-03-21T09:52:41.104Z,3.80
2018-03-21T09:55:07.705Z,4.32
2018-03-21T09:57:34.312Z,3.55
2018-03-21T10:00:01.192Z,4.25
2018-03-21T10:02:27.789Z,2.90
2018-03-21T10:04:54.366Z,3.08
2018-03-21T10:07:21.450Z,3.53
2018-03-21T10:09:48.051Z,3.15
2018-03-21T10:12:14.639Z,3.28
2018-03-21T10:14:41.231Z,4.75
2018-03-21T10:17:07.814Z,4.50
2018-03-21T10:19:34.402Z,4.93
2018-03-21T10:22:01.029Z,2.60
2018-03-21T10:24:27.614Z,4.40
2018-03-21T10:26:54.899Z,5.25
2018-03-21T10:29:21.546Z,5.28
2018-03-21T10:31:48.097Z,3.30
2018-03-21T10:34:14.678Z,3.03
2018-03-21T10:36:41.293Z,4.60
2018-03-21T10:39:07.922Z,4.10
2018-03-21T10:41:34.540Z,5.35
2018-03-21T10:44:01.137Z,3.80
2018-03-21T10:46:27.722Z,4.90
2018-03-21T10:48:54.391Z,4.35
2018-03-21T10:51:20.918Z,6.03
2018-03-21T10:53:47.528Z,5.43
2018-03-21T10:56:14.134Z,6.18
2018-03-21T10:58:40.750Z,5.87
2018-03-21T11:01:13.205Z,7.95
2018-03-21T11:03:39.794Z,5.50
2018-03-21T11:06:06.410Z,7.12
2018-03-21T11:08:33.022Z,5.20
2018-03-21T11:10:59.614Z,3.80
2018-03-21T11:13:26.212Z,4.18
2018-03-21T11:15:52.814Z,6.70
2018-03-21T11:18:19.421Z,3.87
2018-03-21T11:20:46.037Z,3.75
2018-03-21T11:23:12.647Z,3.05
2018-03-21T11:25:39.260Z,2.78
2018-03-21T11:28:05.864Z,3.30
2018-03-21T11:30:32.473Z,3.10
2018-03-21T11:32:59.091Z,2.37
2018-03-21T11:35:25.676Z,2.53
2018-03-21T11:37:52.289Z,1.80
2018-03-21T11:40:18.892Z,2.78
2018-03-21T11:42:45.497Z,3.03
2018-03-21T11:45:12.089Z,3.58
2018-03-21T11:47:38.694Z,3.55
2018-03-21T11:50:05.315Z,4.28
2018-03-21T11:52:32.869Z,5.50
2018-03-21T11:54:59.523Z,5.22
2018-03-21T11:57:26.129Z,6.60
2018-03-21T11:59:52.714Z,7.75
2018-03-21T12:02:19.331Z,11.05
2018-03-21T12:04:45.918Z,5.03
2018-03-21T12:07:12.525Z,5.57
2018-03-21T12:09:39.127Z,5.43
2018-03-21T12:12:05.720Z,6.32
2018-03-21T12:14:32.312Z,6.80
2018-03-21T12:16:58.915Z,4.87
2018-03-21T12:19:25.524Z,5.78
2018-03-21T12:21:52.129Z,5.30
2018-03-21T12:24:18.730Z,8.40
2018-03-21T12:26:45.325Z,8.07
2018-03-21T12:29:11.914Z,6.43
2018-03-21T12:31:38.519Z,6.57
2018-03-21T12:34:05.120Z,5.55
2018-03-21T12:36:31.732Z,6.75
2018-03-21T12:38:58.342Z,4.85
2018-03-21T12:41:24.929Z,5.40
2018-03-21T12:43:51.514Z,4.03
2018-03-21T12:46:18.130Z,4.47
2018-03-21T12:48:44.734Z,7.00
2018-03-21T12:51:11.350Z,3.70
2018-03-21T12:53:37.939Z,2.45
2018-03-21T12:56:04.608Z,3.28
2018-03-21T12:58:31.135Z,4.07
2018-03-21T13:00:58.473Z,3.17
2018-03-21T13:03:25.128Z,5.12
2018-03-21T13:05:51.726Z,4.57
2018-03-21T13:08:18.305Z,3.97
2018-03-21T13:10:44.893Z,7.32
2018-03-21T13:13:11.496Z,5.40
2018-03-21T13:15:38.085Z,5.60
2018-03-21T13:18:04.685Z,4.90
2018-03-21T13:20:31.296Z,5.85
2018-03-21T13:22:57.895Z,4.28
2018-03-21T13:25:24.501Z,3.80
2018-03-21T13:27:51.107Z,6.55
2018-03-21T13:30:17.717Z,4.05
2018-03-21T13:32:44.333Z,5.05
2018-03-21T13:35:11.776Z,6.37
2018-03-21T13:37:38.357Z,6.90
2018-03-21T13:40:04.960Z,5.72
2018-03-21T13:42:31.547Z,8.40
2018-03-21T13:44:58.138Z,7.75
2018-03-21T13:47:24.745Z,5.32
2018-03-21T13:49:51.350Z,8.88
2018-03-21T13:52:17.938Z,10.15
2018-03-21T13:54:44.534Z,8.68
2018-03-21T13:57:12.272Z,10.88
2018-03-21T13:59:39.403Z,11.57
2018-03-21T14:02:06.809Z,14.57
2018-03-21T14:04:33.398Z,7.15
2018-03-21T14:07:00.006Z,6.97
2018-03-21T14:09:26.596Z,7.45
2018-03-21T14:11:53.205Z,12.40
2018-03-21T14:14:19.830Z,15.23
2018-03-21T14:16:46.428Z,11.88
2018-03-21T14:19:13.034Z,11.40
2018-03-21T14:21:39.656Z,11.27
2018-03-21T14:24:06.266Z,8.20
2018-03-21T14:26:32.860Z,9.68
2018-03-21T14:28:59.462Z,13.30
2018-03-21T14:31:26.073Z,8.90
2018-03-21T14:33:52.672Z,12.77
2018-03-21T14:36:19.284Z,14.52
2018-03-21T14:38:45.933Z,8.88
2018-03-21T14:41:12.499Z,17.87
2018-03-21T14:43:39.102Z,9.90
2018-03-21T14:46:05.719Z,12.13
2018-03-21T14:48:32.330Z,12.90
2018-03-21T14:50:58.926Z,21.52
2018-03-21T14:53:25.524Z,8.68
2018-03-21T14:55:53.137Z,8.75
2018-03-21T14:58:20.228Z,11.12
2018-03-21T15:00:46.824Z,13.13
2018-03-21T15:03:13.429Z,9.55
2018-03-21T15:05:40.036Z,9.90
2018-03-21T15:08:06.626Z,7.20
2018-03-21T15:10:33.226Z,13.38
2018-03-21T15:13:00.291Z,11.50
2018-03-21T15:15:26.882Z,8.35
2018-03-21T15:17:53.489Z,8.38
2018-03-21T15:20:20.120Z,8.65
2018-03-21T15:22:46.707Z,6.85
2018-03-21T15:25:13.308Z,7.62
2018-03-21T15:27:39.934Z,6.05
2018-03-21T15:30:06.540Z,5.87
2018-03-21T15:32:33.140Z,7.03
2018-03-21T15:34:59.879Z,7.60
2018-03-21T15:37:26.510Z,9.60
2018-03-21T15:39:53.108Z,9.25
2018-03-21T15:42:19.747Z,12.13
2018-03-21T15:44:46.344Z,7.03
2018-03-21T15:47:12.938Z,12.75
2018-03-21T15:49:39.541Z,18.73
2018-03-21T15:52:06.149Z,11.52
2018-03-21T15:54:32.828Z,13.95
2018-03-21T15:56:59.411Z,9.88
2018-03-21T15:59:26.091Z,11.23
2018-03-21T16:01:53.265Z,15.80
2018-03-21T16:04:19.928Z,11.18
2018-03-21T16:06:46.532Z,12.07
2018-03-21T16:09:13.629Z,14.13
2018-03-21T16:11:40.223Z,10.18
2018-03-21T16:14:06.832Z,15.68
2018-03-21T16:16:33.452Z,14.43
2018-03-21T16:19:00.151Z,14.20
2018-03-21T16:21:26.750Z,11.68
2018-03-21T16:23:54.021Z,19.92
2018-03-21T16:26:20.790Z,20.08
2018-03-21T16:28:47.396Z,9.52
2018-03-21T16:31:14.002Z,13.20
2018-03-21T16:33:40.648Z,11.00
2018-03-21T16:36:07.265Z,13.95
2018-03-21T16:38:33.874Z,13.00
2018-03-21T16:41:01.326Z,13.23
2018-03-21T16:43:27.936Z,12.50
2018-03-21T16:45:54.552Z,14.52
2018-03-21T16:48:21.152Z,20.45
2018-03-21T16:50:47.776Z,24.05
2018-03-21T16:53:14.986Z,30.80
2018-03-21T16:55:41.596Z,23.87
2018-03-21T16:58:08.269Z,24.95
2018-03-21T17:00:34.884Z,27.58
2018-03-21T17:03:01.478Z,25.83
2018-03-21T17:05:28.086Z,24.48
2018-03-21T17:10:27.868Z,21.30
2018-03-21T17:12:54.480Z,19.90
2018-03-21T17:15:21.085Z,30.00
2018-03-21T17:24:32.053Z,38.67
2018-03-21T17:26:58.709Z,46.13
2018-03-21T17:29:25.316Z,38.13
2018-03-21T17:31:51.928Z,59.53
2018-03-21T17:34:18.546Z,50.97
2018-03-21T17:36:45.139Z,48.25
2018-03-21T17:39:11.744Z,35.83
2018-03-21T17:41:38.349Z,65.93
2018-03-21T17:44:04.949Z,53.03
2018-03-21T17:46:31.555Z,49.55
2018-03-21T17:48:58.803Z,47.88
2018-03-21T17:51:25.390Z,56.20
2018-03-21T17:53:51.998Z,61.83
2018-03-21T17:56:18.590Z,58.30
2018-03-21T17:58:45.249Z,46.40
2018-03-21T18:01:11.816Z,73.47
2018-03-21T18:03:38.429Z,87.90
2018-03-21T18:06:05.034Z,52.05
2018-03-21T18:08:31.651Z,39.55
2018-03-21T18:10:58.265Z,52.78
2018-03-21T18:13:24.875Z,54.67
2018-03-21T18:15:51.478Z,49.25
2018-03-21T18:18:18.079Z,61.92
2018-03-21T18:20:44.670Z,84.32
2018-03-21T18:23:11.271Z,93.32
2018-03-21T18:25:37.866Z,63.50
2018-03-21T18:28:04.478Z,65.32
2018-03-21T18:30:31.084Z,70.07
2018-03-21T18:32:57.735Z,77.35
2018-03-21T18:35:25.226Z,58.15
2018-03-21T18:37:51.905Z,67.47
2018-03-21T18:40:18.454Z,87.57
2018-03-21T18:42:45.054Z,92.37
2018-03-21T18:45:11.669Z,95.03
2018-03-21T18:47:38.272Z,84.57
2018-03-21T18:50:04.885Z,59.97
2018-03-21T18:52:31.494Z,79.82
2018-03-21T18:54:58.098Z,83.30
2018-03-21T18:57:24.706Z,80.62
2018-03-21T18:59:51.302Z,69.32
2018-03-21T19:02:18.657Z,78.50
2018-03-21T19:04:45.281Z,66.28
2018-03-21T19:07:11.877Z,74.32
2018-03-21T19:09:38.474Z,86.30
2018-03-21T19:12:05.082Z,77.78
2018-03-21T19:14:31.967Z,79.53
2018-03-21T19:16:58.563Z,99.18
2018-03-21T19:19:25.179Z,105.12
2018-03-21T19:21:51.786Z,102.82
2018-03-21T19:24:18.382Z,94.55
2018-03-21T19:26:44.990Z,111.00
2018-03-21T19:29:11.659Z,94.93
2018-03-21T19:31:38.194Z,89.25
2018-03-21T19:34:04.790Z,86.80
2018-03-21T19:36:31.398Z,99.35
2018-03-21T19:38:57.990Z,88.03
2018-03-21T19:41:24.590Z,77.37
2018-03-21T19:43:51.356Z,67.87
2018-03-21T19:48:51.090Z,69.32
2018-03-21T19:51:17.691Z,89.72
2018-03-21T19:53:44.308Z,87.22
2018-03-21T19:56:10.907Z,81.68
2018-03-21T19:58:38.285Z,70.10
2018-03-21T20:01:04.940Z,58.65
2018-03-21T20:03:31.552Z,99.10
2018-03-21T20:05:58.175Z,106.43
2018-03-21T20:08:24.783Z,96.87
2018-03-21T20:10:51.374Z,100.50
2018-03-21T20:13:20.145Z,87.57
2018-03-21T20:15:46.752Z,95.30
2018-03-21T20:18:13.426Z,106.20
2018-03-21T20:20:39.970Z,99.80
2018-03-21T20:23:06.585Z,118.18
2018-03-21T20:25:33.208Z,115.18
2018-03-21T20:27:59.803Z,114.88
2018-03-21T20:30:26.416Z,114.00
2018-03-21T20:32:53.018Z,122.25
2018-03-21T20:35:19.640Z,118.22
2018-03-21T20:37:46.231Z,93.30
2018-03-21T20:40:12.826Z,90.03
2018-03-21T20:42:39.427Z,97.65
2018-03-21T20:45:06.033Z,88.70
2018-03-21T20:47:32.646Z,75.30
2018-03-21T20:49:59.241Z,85.35
2018-03-21T20:52:25.855Z,76.78
2018-03-21T20:54:53.384Z,104.55
2018-03-21T20:57:19.982Z,98.28
2018-03-21T20:59:46.593Z,115.18
2018-03-21T21:02:13.209Z,146.07
2018-03-21T21:04:39.824Z,121.57
2018-03-21T21:07:06.440Z,105.30
2018-03-21T21:09:33.042Z,135.07
2018-03-21T21:11:59.660Z,101.18
2018-03-21T21:14:26.373Z,135.90
2018-03-21T21:16:52.905Z,118.28
2018-03-21T21:19:19.513Z,106.45
2018-03-21T21:21:46.154Z,97.65
2018-03-21T21:24:12.781Z,80.80
2018-03-21T21:26:39.405Z,139.32
2018-03-21T21:29:06.022Z,117.60
2018-03-21T21:31:32.626Z,150.20
2018-03-21T21:33:59.241Z,117.03
2018-03-21T21:36:25.848Z,89.75
2018-03-21T21:38:52.461Z,116.47
2018-03-21T21:41:19.076Z,96.68
2018-03-21T21:43:45.692Z,143.50
2018-03-21T21:46:12.310Z,108.47
2018-03-21T21:48:38.924Z,120.28
2018-03-21T21:51:05.549Z,101.25
2018-03-21T21:53:32.160Z,99.40
2018-03-21T21:55:58.984Z,152.23
2018-03-21T21:58:25.588Z,116.10
2018-03-21T22:00:52.207Z,131.20
2018-03-21T22:03:19.526Z,122.90
2018-03-21T22:05:46.130Z,113.00
2018-03-21T22:08:12.734Z,92.43
2018-03-21T22:10:39.339Z,121.53
2018-03-21T22:13:05.941Z,90.07
2018-03-21T22:15:32.558Z,108.57
2018-03-21T22:17:59.161Z,101.40
2018-03-21T22:20:25.788Z,91.82
2018-03-21T22:22:52.381Z,76.03
2018-03-21T22:25:18.976Z,76.60
2018-03-21T22:27:45.582Z,92.65
2018-03-21T22:30:12.173Z,77.18
2018-03-21T22:32:38.775Z,83.40
2018-03-21T22:35:05.383Z,98.55
2018-03-21T22:37:31.992Z,93.10
2018-03-21T22:39:58.594Z,116.65
2018-03-21T22:42:25.196Z,84.15
2018-03-21T22:44:51.794Z,92.20
2018-03-21T22:47:18.385Z,91.87
2018-03-21T22:49:44.987Z,73.70
2018-03-21T22:52:11.609Z,89.25
2018-03-21T22:54:38.222Z,126.43
2018-03-21T22:57:04.826Z,122.13
2018-03-21T22:59:31.422Z,121.37
2018-03-21T23:01:58.046Z,111.28
2018-03-21T23:04:24.646Z,85.10
2018-03-21T23:06:51.242Z,92.90
2018-03-21T23:09:17.840Z,87.43
2018-03-21T23:11:44.449Z,82.12
2018-03-21T23:14:11.570Z,78.90
2018-03-21T23:16:38.212Z,84.90
2018-03-21T23:19:04.816Z,95.68
2018-03-21T23:21:31.448Z,102.68
2018-03-21T23:23:58.062Z,97.50
2018-03-21T23:26:24.676Z,112.18
2018-03-21T23:28:51.412Z,128.82
2018-03-21T23:31:18.042Z,122.50
2018-03-21T23:33:44.637Z,74.53
2018-03-21T23:36:11.259Z,92.70
2018-03-21T23:38:37.865Z,142.70
2018-03-21T23:41:04.462Z,89.90
2018-03-21T23:43:31.060Z,85.95
2018-03-21T23:45:57.654Z,89.55
2018-03-21T23:48:24.268Z,88.97
2018-03-21T23:50:50.876Z,76.43
2018-03-21T23:53:17.567Z,133.45
2018-03-21T23:55:44.158Z,91.68
2018-03-21T23:58:10.773Z,85.25
